sensor_id;sensor_type;location;lat;lon;timestamp;pressure;altitude;pressure_sealevel;temperature;humidity
53522;BME280;39398;48.382;9.802;2023-12-20T00:00:56;93849.88;;;2.19;74.93
53522;BME280;39398;48.382;9.802;2023-12-20T00:05:59;93839.97;;;2.16;74.80
53522;BME280;39398;48.382;9.802;2023-12-20T00:11:01;93840.94;;;2.23;74.84
53522;BME280;39398;48.382;9.802;2023-12-20T00:16:03;93842.56;;;2.24;75.05
53522;BME280;39398;48.382;9.802;2023-12-20T00:21:06;93836.31;;;2.26;75.09
53522;BME280;39398;48.382;9.802;2023-12-20T00:26:07;93831.69;;;2.30;74.99
53522;BME280;39398;48.382;9.802;2023-12-20T00:31:09;93824.66;;;2.32;74.77
53522;BME280;39398;48.382;9.802;2023-12-20T00:36:12;93818.88;;;2.30;75.01
53522;BME280;39398;48.382;9.802;2023-12-20T00:41:14;93788.25;;;2.36;74.74
53522;BME280;39398;48.382;9.802;2023-12-20T00:46:15;93788.91;;;2.38;74.77
53522;BME280;39398;48.382;9.802;2023-12-20T00:51:19;93790.81;;;2.36;74.85
53522;BME280;39398;48.382;9.802;2023-12-20T00:56:20;93773.66;;;2.37;75.03
53522;BME280;39398;48.382;9.802;2023-12-20T01:01:22;93772.06;;;2.36;75.22
53522;BME280;39398;48.382;9.802;2023-12-20T01:06:25;93767.88;;;2.35;75.30
53522;BME280;39398;48.382;9.802;2023-12-20T01:11:27;93754.75;;;2.38;74.83
53522;BME280;39398;48.382;9.802;2023-12-20T01:16:29;93757.97;;;2.40;74.91
53522;BME280;39398;48.382;9.802;2023-12-20T01:21:32;93753.50;;;2.42;75.30
53522;BME280;39398;48.382;9.802;2023-12-20T01:26:33;93757.81;;;2.41;75.38
53522;BME280;39398;48.382;9.802;2023-12-20T01:31:35;93759.88;;;2.38;75.71
53522;BME280;39398;48.382;9.802;2023-12-20T01:36:38;93761.50;;;2.39;76.42
53522;BME280;39398;48.382;9.802;2023-12-20T01:41:40;93772.56;;;2.39;77.06
53522;BME280;39398;48.382;9.802;2023-12-20T01:46:41;93771.44;;;2.42;77.29
53522;BME280;39398;48.382;9.802;2023-12-20T01:51:45;93772.09;;;2.44;77.80
53522;BME280;39398;48.382;9.802;2023-12-20T01:56:47;93762.63;;;2.44;78.12
53522;BME280;39398;48.382;9.802;2023-12-20T02:01:50;93770.50;;;2.43;78.68
53522;BME280;39398;48.382;9.802;2023-12-20T02:06:53;93780.75;;;2.43;79.79
53522;BME280;39398;48.382;9.802;2023-12-20T02:11:57;93769.84;;;2.41;80.34
53522;BME280;39398;48.382;9.802;2023-12-20T02:16:59;93778.66;;;2.38;81.13
53522;BME280;39398;48.382;9.802;2023-12-20T02:22:09;93771.09;;;2.37;81.55
53522;BME280;39398;48.382;9.802;2023-12-20T02:27:11;93758.59;;;2.34;82.52
53522;BME280;39398;48.382;9.802;2023-12-20T02:32:13;93760.84;;;2.37;82.62
53522;BME280;39398;48.382;9.802;2023-12-20T02:37:16;93759.88;;;2.38;83.32
53522;BME280;39398;48.382;9.802;2023-12-20T02:42:18;93763.25;;;2.38;83.50
53522;BME280;39398;48.382;9.802;2023-12-20T02:47:20;93754.91;;;2.36;84.05
53522;BME280;39398;48.382;9.802;2023-12-20T02:52:23;93760.03;;;2.36;84.42
53522;BME280;39398;48.382;9.802;2023-12-20T02:57:24;93773.81;;;2.35;84.52
53522;BME280;39398;48.382;9.802;2023-12-20T03:02:29;93743.38;;;2.32;85.47
53522;BME280;39398;48.382;9.802;2023-12-20T03:07:31;93748.97;;;2.36;85.47
53522;BME280;39398;48.382;9.802;2023-12-20T03:12:33;93759.56;;;2.33;85.52
53522;BME280;39398;48.382;9.802;2023-12-20T03:17:35;93759.88;;;2.30;86.10
53522;BME280;39398;48.382;9.802;2023-12-20T03:22:38;93753.13;;;2.29;85.93
53522;BME280;39398;48.382;9.802;2023-12-20T03:27:39;93751.22;;;2.31;86.30
53522;BME280;39398;48.382;9.802;2023-12-20T03:32:41;93749.09;;;2.26;86.74
53522;BME280;39398;48.382;9.802;2023-12-20T03:37:44;93744.78;;;2.27;87.00
53522;BME280;39398;48.382;9.802;2023-12-20T03:42:46;93755.03;;;2.27;86.96
53522;BME280;39398;48.382;9.802;2023-12-20T03:47:48;93753.13;;;2.29;87.40
53522;BME280;39398;48.382;9.802;2023-12-20T03:52:52;93759.22;;;2.28;87.66
53522;BME280;39398;48.382;9.802;2023-12-20T03:57:53;93769.31;;;2.29;87.98
53522;BME280;39398;48.382;9.802;2023-12-20T04:02:55;93761.63;;;2.29;88.12
53522;BME280;39398;48.382;9.802;2023-12-20T04:07:59;93770.13;;;2.30;88.35
53522;BME280;39398;48.382;9.802;2023-12-20T04:13:01;93766.59;;;2.31;88.83
53522;BME280;39398;48.382;9.802;2023-12-20T04:18:03;93774.16;;;2.32;88.87
53522;BME280;39398;48.382;9.802;2023-12-20T04:23:05;93774.63;;;2.36;88.64
53522;BME280;39398;48.382;9.802;2023-12-20T04:28:07;93781.38;;;2.37;88.99
53522;BME280;39398;48.382;9.802;2023-12-20T04:33:09;93781.56;;;2.43;89.09
53522;BME280;39398;48.382;9.802;2023-12-20T04:38:12;93789.25;;;2.43;89.77
53522;BME280;39398;48.382;9.802;2023-12-20T04:43:13;93801.16;;;2.53;89.61
53522;BME280;39398;48.382;9.802;2023-12-20T04:48:16;93801.34;;;2.59;89.41
53522;BME280;39398;48.382;9.802;2023-12-20T04:53:19;93797.50;;;2.63;89.29
53522;BME280;39398;48.382;9.802;2023-12-20T04:58:21;93800.72;;;2.65;89.25
53522;BME280;39398;48.382;9.802;2023-12-20T05:03:23;93798.00;;;2.67;89.09
53522;BME280;39398;48.382;9.802;2023-12-20T05:08:26;93798.00;;;2.67;89.25
53522;BME280;39398;48.382;9.802;2023-12-20T05:13:27;93799.63;;;2.68;88.84
53522;BME280;39398;48.382;9.802;2023-12-20T05:18:44;93817.59;;;2.68;88.97
53522;BME280;39398;48.382;9.802;2023-12-20T05:23:47;93818.84;;;2.64;88.90
53522;BME280;39398;48.382;9.802;2023-12-20T05:28:49;93816.72;;;2.59;88.84
53522;BME280;39398;48.382;9.802;2023-12-20T05:33:51;93836.16;;;2.62;88.63
53522;BME280;39398;48.382;9.802;2023-12-20T05:38:54;93855.59;;;2.64;89.01
53522;BME280;39398;48.382;9.802;2023-12-20T05:43:55;93849.78;;;2.62;88.89
53522;BME280;39398;48.382;9.802;2023-12-20T05:48:57;93854.94;;;2.70;89.25
53522;BME280;39398;48.382;9.802;2023-12-20T05:54:00;93860.72;;;2.64;89.07
53522;BME280;39398;48.382;9.802;2023-12-20T05:59:02;93863.13;;;2.66;89.43
53522;BME280;39398;48.382;9.802;2023-12-20T06:04:03;93869.53;;;2.70;89.14
53522;BME280;39398;48.382;9.802;2023-12-20T06:09:06;93885.09;;;2.68;89.88
53522;BME280;39398;48.382;9.802;2023-12-20T06:14:08;93876.13;;;2.72;89.36
53522;BME280;39398;48.382;9.802;2023-12-20T06:19:10;93880.00;;;2.76;89.55
53522;BME280;39398;48.382;9.802;2023-12-20T06:24:13;93892.19;;;2.74;89.89
53522;BME280;39398;48.382;9.802;2023-12-20T06:29:14;93894.59;;;2.76;89.84
53522;BME280;39398;48.382;9.802;2023-12-20T06:34:16;93899.44;;;2.79;89.77
53522;BME280;39398;48.382;9.802;2023-12-20T06:39:19;93906.97;;;2.80;89.81
53522;BME280;39398;48.382;9.802;2023-12-20T06:44:20;93899.28;;;2.80;90.01
53522;BME280;39398;48.382;9.802;2023-12-20T06:49:22;93899.94;;;2.83;90.15
53522;BME280;39398;48.382;9.802;2023-12-20T06:54:25;93905.69;;;2.76;90.44
53522;BME280;39398;48.382;9.802;2023-12-20T06:59:26;93916.59;;;2.78;90.15
53522;BME280;39398;48.382;9.802;2023-12-20T07:04:28;93914.53;;;2.82;90.15
53522;BME280;39398;48.382;9.802;2023-12-20T07:09:31;93905.72;;;2.85;90.29
53522;BME280;39398;48.382;9.802;2023-12-20T07:14:33;93930.41;;;2.86;90.86
53522;BME280;39398;48.382;9.802;2023-12-20T07:19:34;93934.75;;;2.85;90.54
53522;BME280;39398;48.382;9.802;2023-12-20T07:24:37;93943.44;;;2.84;90.86
53522;BME280;39398;48.382;9.802;2023-12-20T07:29:39;93949.53;;;2.91;90.43
53522;BME280;39398;48.382;9.802;2023-12-20T07:34:42;93950.66;;;2.89;90.85
53522;BME280;39398;48.382;9.802;2023-12-20T07:39:45;93960.25;;;2.87;91.22
53522;BME280;39398;48.382;9.802;2023-12-20T07:44:46;93967.16;;;2.86;91.13
53522;BME280;39398;48.382;9.802;2023-12-20T07:49:48;93964.94;;;2.91;90.91
53522;BME280;39398;48.382;9.802;2023-12-20T07:54:51;93965.25;;;2.88;91.86
53522;BME280;39398;48.382;9.802;2023-12-20T07:59:53;93974.13;;;2.94;91.71
53522;BME280;39398;48.382;9.802;2023-12-20T08:04:54;93972.84;;;2.98;91.63
53522;BME280;39398;48.382;9.802;2023-12-20T08:09:58;93968.03;;;3.03;91.88
53522;BME280;39398;48.382;9.802;2023-12-20T08:14:59;93966.13;;;3.05;91.55
53522;BME280;39398;48.382;9.802;2023-12-20T08:20:01;93978.53;;;3.09;91.85
53522;BME280;39398;48.382;9.802;2023-12-20T08:25:05;93973.88;;;3.13;92.00
53522;BME280;39398;48.382;9.802;2023-12-20T08:30:08;93966.03;;;3.14;92.03
53522;BME280;39398;48.382;9.802;2023-12-20T08:35:10;93978.38;;;3.19;91.57
53522;BME280;39398;48.382;9.802;2023-12-20T08:40:13;93980.00;;;3.20;91.59
53522;BME280;39398;48.382;9.802;2023-12-20T08:45:15;93987.09;;;3.26;90.93
53522;BME280;39398;48.382;9.802;2023-12-20T08:50:17;93978.13;;;3.38;90.27
53522;BME280;39398;48.382;9.802;2023-12-20T08:55:20;93988.81;;;3.52;90.50
53522;BME280;39398;48.382;9.802;2023-12-20T09:00:22;93990.38;;;3.53;90.89
53522;BME280;39398;48.382;9.802;2023-12-20T09:05:23;93985.63;;;3.66;90.51
53522;BME280;39398;48.382;9.802;2023-12-20T09:10:26;93966.66;;;3.67;89.38
53522;BME280;39398;48.382;9.802;2023-12-20T09:15:28;93965.69;;;3.68;89.56
53522;BME280;39398;48.382;9.802;2023-12-20T09:20:33;93972.75;;;3.74;89.30
53522;BME280;39398;48.382;9.802;2023-12-20T09:25:36;93971.81;;;3.83;89.52
53522;BME280;39398;48.382;9.802;2023-12-20T09:30:38;93985.66;;;3.90;89.26
53522;BME280;39398;48.382;9.802;2023-12-20T09:35:39;93976.00;;;3.92;88.05
53522;BME280;39398;48.382;9.802;2023-12-20T09:40:42;93975.69;;;3.95;87.87
53522;BME280;39398;48.382;9.802;2023-12-20T09:45:46;93985.81;;;4.05;88.05
53522;BME280;39398;48.382;9.802;2023-12-20T09:50:48;93985.81;;;4.21;87.22
53522;BME280;39398;48.382;9.802;2023-12-20T09:55:58;93983.09;;;4.47;88.67
53522;BME280;39398;48.382;9.802;2023-12-20T10:01:00;93966.69;;;4.32;86.03
53522;BME280;39398;48.382;9.802;2023-12-20T10:06:03;93974.09;;;4.27;86.62
53522;BME280;39398;48.382;9.802;2023-12-20T10:11:07;93965.41;;;4.28;84.41
53522;BME280;39398;48.382;9.802;2023-12-20T10:16:08;93958.97;;;4.24;85.07
53522;BME280;39398;48.382;9.802;2023-12-20T10:21:10;93970.25;;;4.14;84.16
53522;BME280;39398;48.382;9.802;2023-12-20T10:26:19;93965.41;;;4.11;84.82
53522;BME280;39398;48.382;9.802;2023-12-20T10:31:27;93969.91;;;4.01;83.74
53522;BME280;39398;48.382;9.802;2023-12-20T10:36:31;93965.47;;;3.45;83.85
53522;BME280;39398;48.382;9.802;2023-12-20T10:41:34;93982.69;;;3.10;84.77
53522;BME280;39398;48.382;9.802;2023-12-20T10:46:37;93977.34;;;2.96;83.93
53522;BME280;39398;48.382;9.802;2023-12-20T10:51:40;93980.47;;;2.82;83.12
53522;BME280;39398;48.382;9.802;2023-12-20T10:56:43;93970.91;;;2.92;84.04
53522;BME280;39398;48.382;9.802;2023-12-20T11:01:46;93974.50;;;3.07;82.55
53522;BME280;39398;48.382;9.802;2023-12-20T11:06:51;93970.00;;;3.01;82.26
53522;BME280;39398;48.382;9.802;2023-12-20T11:12:04;93961.13;;;2.95;82.67
53522;BME280;39398;48.382;9.802;2023-12-20T11:17:08;93971.13;;;3.06;81.71
53522;BME280;39398;48.382;9.802;2023-12-20T11:22:11;93964.22;;;3.07;81.34
53522;BME280;39398;48.382;9.802;2023-12-20T11:27:14;93960.44;;;3.27;80.39
53522;BME280;39398;48.382;9.802;2023-12-20T11:32:28;93951.44;;;3.23;79.38
53522;BME280;39398;48.382;9.802;2023-12-20T11:37:30;93955.09;;;3.21;79.40
53522;BME280;39398;48.382;9.802;2023-12-20T11:42:37;93951.88;;;3.10;79.11
53522;BME280;39398;48.382;9.802;2023-12-20T11:47:39;93952.81;;;3.01;77.89
53522;BME280;39398;48.382;9.802;2023-12-20T11:52:41;93960.31;;;2.95;78.50
53522;BME280;39398;48.382;9.802;2023-12-20T11:57:44;93952.34;;;3.06;77.09
53522;BME280;39398;48.382;9.802;2023-12-20T12:02:57;93961.00;;;3.05;78.20
53522;BME280;39398;48.382;9.802;2023-12-20T12:07:59;93948.69;;;3.17;78.22
53522;BME280;39398;48.382;9.802;2023-12-20T12:13:05;93954.63;;;3.17;77.22
53522;BME280;39398;48.382;9.802;2023-12-20T12:18:07;93939.59;;;3.30;77.81
53522;BME280;39398;48.382;9.802;2023-12-20T12:23:08;93939.59;;;3.30;76.05
53522;BME280;39398;48.382;9.802;2023-12-20T12:28:11;93932.06;;;3.53;77.12
53522;BME280;39398;48.382;9.802;2023-12-20T12:33:13;93931.44;;;3.51;75.74
53522;BME280;39398;48.382;9.802;2023-12-20T12:38:15;93927.19;;;3.26;74.98
53522;BME280;39398;48.382;9.802;2023-12-20T12:43:18;93927.53;;;3.31;76.81
53522;BME280;39398;48.382;9.802;2023-12-20T12:48:20;93932.09;;;3.03;75.72
53522;BME280;39398;48.382;9.802;2023-12-20T12:53:22;93940.44;;;3.05;76.29
53522;BME280;39398;48.382;9.802;2023-12-20T12:58:24;93931.13;;;2.96;75.23
53522;BME280;39398;48.382;9.802;2023-12-20T13:03:27;93929.41;;;3.12;74.55
53522;BME280;39398;48.382;9.802;2023-12-20T13:08:29;93933.75;;;3.20;73.96
53522;BME280;39398;48.382;9.802;2023-12-20T13:13:32;93940.84;;;3.18;74.86
53522;BME280;39398;48.382;9.802;2023-12-20T13:18:34;93940.44;;;3.05;74.34
53522;BME280;39398;48.382;9.802;2023-12-20T13:23:36;93940.00;;;2.75;75.87
53522;BME280;39398;48.382;9.802;2023-12-20T13:28:43;93947.69;;;2.67;74.10
53522;BME280;39398;48.382;9.802;2023-12-20T13:33:44;93946.75;;;2.76;75.60
53522;BME280;39398;48.382;9.802;2023-12-20T13:38:46;93947.69;;;2.67;74.43
53522;BME280;39398;48.382;9.802;2023-12-20T13:43:49;93927.22;;;2.84;74.33
53522;BME280;39398;48.382;9.802;2023-12-20T13:48:50;93933.31;;;2.83;73.89
53522;BME280;39398;48.382;9.802;2023-12-20T13:53:52;93929.94;;;2.82;73.27
53522;BME280;39398;48.382;9.802;2023-12-20T13:58:55;93947.09;;;2.82;72.64
53522;BME280;39398;48.382;9.802;2023-12-20T14:03:57;93954.31;;;2.78;68.97
53522;BME280;39398;48.382;9.802;2023-12-20T14:08:58;93954.81;;;2.82;70.94
53522;BME280;39398;48.382;9.802;2023-12-20T14:14:01;93964.06;;;2.74;71.52
53522;BME280;39398;48.382;9.802;2023-12-20T14:19:03;93964.66;;;2.68;71.74
53522;BME280;39398;48.382;9.802;2023-12-20T14:24:05;93964.88;;;2.75;73.12
53522;BME280;39398;48.382;9.802;2023-12-20T14:29:08;93967.88;;;2.70;71.80
53522;BME280;39398;48.382;9.802;2023-12-20T14:34:10;93970.72;;;2.59;71.63
53522;BME280;39398;48.382;9.802;2023-12-20T14:39:12;93968.22;;;2.67;71.87
53522;BME280;39398;48.382;9.802;2023-12-20T14:44:15;93955.19;;;2.69;71.65
53522;BME280;39398;48.382;9.802;2023-12-20T14:49:16;93944.25;;;2.59;71.07
53522;BME280;39398;48.382;9.802;2023-12-20T14:54:18;93944.13;;;2.68;72.30
53522;BME280;39398;48.382;9.802;2023-12-20T14:59:21;93935.81;;;2.66;71.66
53522;BME280;39398;48.382;9.802;2023-12-20T15:04:24;93941.41;;;2.70;72.00
53522;BME280;39398;48.382;9.802;2023-12-20T15:09:25;93938.53;;;2.73;72.77
53522;BME280;39398;48.382;9.802;2023-12-20T15:14:28;93941.13;;;2.73;73.23
53522;BME280;39398;48.382;9.802;2023-12-20T15:19:30;93925.22;;;2.69;72.66
53522;BME280;39398;48.382;9.802;2023-12-20T15:24:33;93924.91;;;2.72;73.82
53522;BME280;39398;48.382;9.802;2023-12-20T15:29:37;93933.09;;;2.68;73.33
53522;BME280;39398;48.382;9.802;2023-12-20T15:34:39;93941.25;;;2.63;73.68
53522;BME280;39398;48.382;9.802;2023-12-20T15:39:41;93953.13;;;2.64;73.62
53522;BME280;39398;48.382;9.802;2023-12-20T15:44:44;93959.53;;;2.68;73.66
53522;BME280;39398;48.382;9.802;2023-12-20T15:49:46;93957.75;;;2.61;73.66
53522;BME280;39398;48.382;9.802;2023-12-20T15:54:48;93962.47;;;2.48;73.52
53522;BME280;39398;48.382;9.802;2023-12-20T15:59:51;93960.88;;;2.47;74.30
53522;BME280;39398;48.382;9.802;2023-12-20T16:04:53;93965.19;;;2.46;74.10
53522;BME280;39398;48.382;9.802;2023-12-20T16:09:54;93977.47;;;2.34;74.37
53522;BME280;39398;48.382;9.802;2023-12-20T16:14:58;93964.06;;;2.23;74.56
53522;BME280;39398;48.382;9.802;2023-12-20T16:19:59;93959.34;;;2.36;74.88
53522;BME280;39398;48.382;9.802;2023-12-20T16:25:01;93962.72;;;2.36;74.68
53522;BME280;39398;48.382;9.802;2023-12-20T16:30:05;93958.38;;;2.37;74.79
53522;BME280;39398;48.382;9.802;2023-12-20T16:35:07;93958.22;;;2.38;74.62
53522;BME280;39398;48.382;9.802;2023-12-20T16:40:10;93937.00;;;2.28;74.49
53522;BME280;39398;48.382;9.802;2023-12-20T16:45:14;93944.06;;;2.26;75.44
53522;BME280;39398;48.382;9.802;2023-12-20T16:50:15;93948.88;;;2.29;75.13
53522;BME280;39398;48.382;9.802;2023-12-20T16:55:17;93940.41;;;2.37;75.03
53522;BME280;39398;48.382;9.802;2023-12-20T17:00:21;93949.84;;;2.28;74.88
53522;BME280;39398;48.382;9.802;2023-12-20T17:05:22;93938.13;;;2.26;75.29
53522;BME280;39398;48.382;9.802;2023-12-20T17:10:25;93933.94;;;2.25;75.33
53522;BME280;39398;48.382;9.802;2023-12-20T17:15:28;93948.00;;;2.21;74.94
53522;BME280;39398;48.382;9.802;2023-12-20T17:20:29;93944.56;;;2.30;75.18
53522;BME280;39398;48.382;9.802;2023-12-20T17:25:31;93943.25;;;2.26;75.38
53522;BME280;39398;48.382;9.802;2023-12-20T17:30:34;93940.75;;;2.34;75.32
53522;BME280;39398;48.382;9.802;2023-12-20T17:35:36;93955.94;;;2.27;75.32
53522;BME280;39398;48.382;9.802;2023-12-20T17:40:37;93965.13;;;2.38;75.19
53522;BME280;39398;48.382;9.802;2023-12-20T17:45:41;93963.84;;;2.34;75.40
53522;BME280;39398;48.382;9.802;2023-12-20T17:50:42;93963.66;;;2.35;75.27
53522;BME280;39398;48.382;9.802;2023-12-20T17:55:44;93970.25;;;2.38;74.91
53522;BME280;39398;48.382;9.802;2023-12-20T18:00:47;93972.63;;;2.31;75.31
53522;BME280;39398;48.382;9.802;2023-12-20T18:05:49;93975.19;;;2.31;75.16
53522;BME280;39398;48.382;9.802;2023-12-20T18:10:51;93976.22;;;2.21;75.37
53522;BME280;39398;48.382;9.802;2023-12-20T18:15:54;93974.94;;;2.17;75.10
53522;BME280;39398;48.382;9.802;2023-12-20T18:20:56;93968.50;;;2.13;75.99
53522;BME280;39398;48.382;9.802;2023-12-20T18:26:04;93962.03;;;2.08;75.37
53522;BME280;39398;48.382;9.802;2023-12-20T18:31:06;93959.63;;;2.07;75.61
53522;BME280;39398;48.382;9.802;2023-12-20T18:36:09;93956.09;;;2.08;75.38
53522;BME280;39398;48.382;9.802;2023-12-20T18:41:11;93952.34;;;2.02;75.09
53522;BME280;39398;48.382;9.802;2023-12-20T18:46:14;93954.59;;;1.97;75.73
53522;BME280;39398;48.382;9.802;2023-12-20T18:51:15;93950.41;;;1.96;75.73
53522;BME280;39398;48.382;9.802;2023-12-20T18:56:17;93948.44;;;1.90;76.40
53522;BME280;39398;48.382;9.802;2023-12-20T19:01:20;93947.75;;;1.88;75.93
53522;BME280;39398;48.382;9.802;2023-12-20T19:06:22;93938.94;;;1.83;77.08
53522;BME280;39398;48.382;9.802;2023-12-20T19:11:23;93942.28;;;1.83;77.07
53522;BME280;39398;48.382;9.802;2023-12-20T19:16:26;93927.50;;;1.77;78.21
53522;BME280;39398;48.382;9.802;2023-12-20T19:21:28;93929.97;;;1.69;77.48
53522;BME280;39398;48.382;9.802;2023-12-20T19:26:29;93932.25;;;1.72;78.25
53522;BME280;39398;48.382;9.802;2023-12-20T19:31:32;93929.69;;;1.72;78.28
53522;BME280;39398;48.382;9.802;2023-12-20T19:36:34;93922.28;;;1.69;77.30
53522;BME280;39398;48.382;9.802;2023-12-20T19:41:36;93913.66;;;1.70;77.47
53522;BME280;39398;48.382;9.802;2023-12-20T19:46:39;93902.44;;;1.71;77.09
53522;BME280;39398;48.382;9.802;2023-12-20T19:51:41;93908.38;;;1.71;76.28
53522;BME280;39398;48.382;9.802;2023-12-20T19:56:44;93891.75;;;1.75;76.30
53522;BME280;39398;48.382;9.802;2023-12-20T20:01:49;93889.06;;;1.77;76.04
53522;BME280;39398;48.382;9.802;2023-12-20T20:06:51;93874.34;;;1.79;77.01
53522;BME280;39398;48.382;9.802;2023-12-20T20:11:52;93874.47;;;1.78;76.91
53522;BME280;39398;48.382;9.802;2023-12-20T20:16:55;93865.97;;;1.77;77.38
53522;BME280;39398;48.382;9.802;2023-12-20T20:21:57;93862.75;;;1.75;77.40
53522;BME280;39398;48.382;9.802;2023-12-20T20:26:59;93868.84;;;1.74;77.60
53522;BME280;39398;48.382;9.802;2023-12-20T20:32:02;93860.19;;;1.75;77.85
53522;BME280;39398;48.382;9.802;2023-12-20T20:37:03;93865.75;;;1.70;77.67
53522;BME280;39398;48.382;9.802;2023-12-20T20:42:05;93861.72;;;1.68;78.96
53522;BME280;39398;48.382;9.802;2023-12-20T20:47:08;93862.34;;;1.62;79.16
53522;BME280;39398;48.382;9.802;2023-12-20T20:52:10;93871.41;;;1.56;80.84
53522;BME280;39398;48.382;9.802;2023-12-20T20:57:11;93887.22;;;1.52;80.13
53522;BME280;39398;48.382;9.802;2023-12-20T21:02:14;93880.81;;;1.48;80.12
53522;BME280;39398;48.382;9.802;2023-12-20T21:07:16;93879.41;;;1.53;80.49
53522;BME280;39398;48.382;9.802;2023-12-20T21:12:18;93870.91;;;1.53;80.63
53522;BME280;39398;48.382;9.802;2023-12-20T21:17:21;93856.00;;;1.48;80.88
53522;BME280;39398;48.382;9.802;2023-12-20T21:22:22;93848.47;;;1.47;81.28
53522;BME280;39398;48.382;9.802;2023-12-20T21:27:24;93855.19;;;1.48;81.52
53522;BME280;39398;48.382;9.802;2023-12-20T21:32:26;93858.03;;;1.45;81.53
53522;BME280;39398;48.382;9.802;2023-12-20T21:37:28;93853.88;;;1.44;81.70
53522;BME280;39398;48.382;9.802;2023-12-20T21:42:30;93833.09;;;1.47;81.47
53522;BME280;39398;48.382;9.802;2023-12-20T21:47:33;93840.13;;;1.45;81.67
53522;BME280;39398;48.382;9.802;2023-12-20T21:52:35;93812.59;;;1.47;81.82
53522;BME280;39398;48.382;9.802;2023-12-20T21:57:36;93822.03;;;1.46;81.89
53522;BME280;39398;48.382;9.802;2023-12-20T22:02:39;93818.66;;;1.46;81.66
53522;BME280;39398;48.382;9.802;2023-12-20T22:07:41;93821.22;;;1.46;81.86
53522;BME280;39398;48.382;9.802;2023-12-20T22:12:42;93817.34;;;1.42;81.92
53522;BME280;39398;48.382;9.802;2023-12-20T22:17:45;93801.03;;;1.43;82.08
53522;BME280;39398;48.382;9.802;2023-12-20T22:22:47;93799.94;;;1.45;82.12
53522;BME280;39398;48.382;9.802;2023-12-20T22:27:49;93797.22;;;1.47;82.13
53522;BME280;39398;48.382;9.802;2023-12-20T22:32:52;93790.19;;;1.49;82.14
53522;BME280;39398;48.382;9.802;2023-12-20T22:37:54;93777.25;;;1.50;81.81
53522;BME280;39398;48.382;9.802;2023-12-20T22:42:55;93774.81;;;1.49;82.03
53522;BME280;39398;48.382;9.802;2023-12-20T22:47:58;93762.03;;;1.49;81.94
53522;BME280;39398;48.382;9.802;2023-12-20T22:53:00;93759.47;;;1.49;82.00
53522;BME280;39398;48.382;9.802;2023-12-20T22:58:01;93770.50;;;1.49;82.22
53522;BME280;39398;48.382;9.802;2023-12-20T23:03:04;93760.13;;;1.51;81.82
53522;BME280;39398;48.382;9.802;2023-12-20T23:08:06;93755.00;;;1.51;81.61
53522;BME280;39398;48.382;9.802;2023-12-20T23:13:08;93743.56;;;1.45;81.49
53522;BME280;39398;48.382;9.802;2023-12-20T23:18:11;93727.41;;;1.45;82.01
53522;BME280;39398;48.382;9.802;2023-12-20T23:23:12;93717.00;;;1.46;81.81
53522;BME280;39398;48.382;9.802;2023-12-20T23:28:14;93710.44;;;1.44;81.54
53522;BME280;39398;48.382;9.802;2023-12-20T23:33:17;93709.31;;;1.46;81.63
53522;BME280;39398;48.382;9.802;2023-12-20T23:38:19;93706.63;;;1.48;81.77
53522;BME280;39398;48.382;9.802;2023-12-20T23:43:20;93687.72;;;1.49;81.88
53522;BME280;39398;48.382;9.802;2023-12-20T23:48:23;93673.63;;;1.53;81.55
53522;BME280;39398;48.382;9.802;2023-12-20T23:53:25;93669.16;;;1.55;82.26
53522;BME280;39398;48.382;9.802;2023-12-20T23:58:26;93657.00;;;1.57;81.47
